• Join FlightAware (Why Join?)
  • Login
  • US Flag 
04:12AM EDT


 

Airport Tracker/Info


-or-


 

Live Flight TrackerFlight Track Log ✈ UAL582 ✈ 10-May-2013 ✈ CYYZ - KORD

Flight Track Log - Related Links

Times and Time Zones

All times are in EDT time to prevent confusion due to time zone crossing. See the UAL582 flight status page for this flight to view local times or setup timezone preferences in your user account.

Time Position Orientation Groundspeed Altitude Reporting Facility
EDT Latitude Longitude Course Direction KTS MPH feet Rate Location/Type
05:46PM 43.6833 -79.5667 253° West 160 184 1,800  Level Toronto Center
05:47PM 43.7167 -79.5000 55° Northeast 230 265 3,900 2,220 Climbing Toronto Center
05:48PM 43.7833 -79.5000 360° North 270 311 6,300 3,000 Climbing Toronto Center
05:49PM 43.7179 -80.2306 277° West  Level FlightAware Approximate
05:49PM 43.8500 -79.5333 340° North 260 299 9,900  Level Toronto Center
05:50PM 43.7292 -80.3538 277° West  Level FlightAware Approximate
05:50PM 43.8500 -79.6500 270° West 290 334 11,800  Level Toronto Center
05:51PM 43.7334 -80.4777 270° West  Level FlightAware Approximate
05:51PM 43.8333 -79.7667 259° West 310 357 14,800  Level Toronto Center
05:52PM 43.7200 -80.6116 253° West  Level FlightAware Approximate
05:52PM 43.8167 -79.8833 259° West 330 380 17,000  Level Toronto Center
05:53PM 43.8000 -80.0333 261° West 340 391 19,500 2,040 Climbing Toronto Center
05:54PM 43.7833 -80.1667 260° West 370 426 21,100 1,740 Climbing Toronto Center
05:55PM 43.7667 -80.3000 260° West 380 437 23,000 1,680 Climbing Toronto Center
05:56PM 43.7500 -80.4667 262° West 390 449 24,500 1,800 Climbing Toronto Center
05:57PM 43.7333 -80.6000 260° West 400 460 26,700 1,860 Climbing Toronto Center
05:58PM 43.7000 -80.7667 255° West 390 449 28,300 1,380 Climbing Toronto Center
05:59PM 43.6500 -80.9000 243° Southwest 390 449 29,500 1,800 Climbing Toronto Center
06:00PM 43.6167 -81.0167 248° West 380 437 31,900 2,040 Climbing Toronto Center
06:01PM 43.6000 -81.1833 262° West 370 426 33,600 1,500 Climbing Toronto Center
06:02PM 43.5667 -81.2833 245° Southwest 360 414 35,000 1,440 Climbing Toronto Center
06:03PM 43.5333 -81.4333 253° West 350 403 36,500 1,200 Climbing Toronto Center
06:04PM 43.5167 -81.5333 257° West 350 403 37,500 720 Climbing Toronto Center
06:05PM 43.4833 -81.6833 253° West 350 403 38,000 240 Climbing Toronto Center
06:06PM 43.4667 -81.8167 260° West 360 414 38,000  Level Toronto Center
06:07PM 43.4167 -81.9500 243° Southwest 370 426 38,000  Level Toronto Center
06:08PM 43.3833 -82.0833 251° West 370 426 38,000  Level Toronto Center
06:09PM 43.3500 -82.2167 251° West 370 426 38,000  Level Toronto Center
06:10PM 43.3333 -82.3667 261° West 370 426 38,000 -120 Level Toronto Center
06:11PM 43.3000 -82.5000 251° West 370 426 37,800 -480 Descending Toronto Center
06:12PM 43.2756 -82.6306 256° West 375 432 37,100 -780 Descending Cleveland Center
06:13PM 43.2419 -82.7661 251° West 375 432 36,300 -900 Descending Cleveland Center
06:14PM 43.2058 -82.9017 250° West 381 438 35,400 -960 Descending Cleveland Center
06:15PM 43.1656 -83.0367 248° West 381 438 34,400 -960 Descending Cleveland Center
06:16PM 43.1275 -83.1661 248° West 387 445 33,500 -960 Descending Cleveland Center
06:17PM 43.0906 -83.3125 251° West 387 445 32,500 -1,020 Descending Cleveland Center
06:18PM 43.0519 -83.4472 249° West 387 445 31,500 -960 Descending Cleveland Center
06:19PM 43.0086 -83.5900 248° West 392 451 30,600 -960 Descending Cleveland Center
06:20PM 42.9717 -83.7300 250° West 392 451 29,600 -960 Descending Cleveland Center
06:21PM 42.9533 -83.8681 260° West 400 460 28,700 -1,020 Descending Cleveland Center
06:22PM 42.9383 -84.0233 263° West 405 466 27,600 -900 Descending Cleveland Center
06:24PM 42.9000 -84.3500 261° West 410 472 26,000 -720 Descending Toronto Center
06:24PM 42.9011 -84.4069 272° West 411 473 26,000  Level Chicago Center
06:26PM 42.8856 -84.5628 262° West 414 476 26,000  Level Chicago Center
06:27PM 42.8697 -84.7211 262° West 422 486 26,000  Level Chicago Center
06:28PM 42.8531 -84.8808 262° West 426 490 26,000  Level Chicago Center
06:29PM 42.8356 -85.0397 262° West 425 489 26,000  Level Chicago Center
06:30PM 42.8144 -85.2342 262° West 430 495 26,000  Level Chicago Center
06:31PM 42.7969 -85.3986 262° West 435 501 26,000 -180 Level Chicago Center
06:32PM 42.7753 -85.5622 260° West 437 503 25,700 -780 Descending Chicago Center
06:33PM 42.7453 -85.7231 256° West 435 501 24,500 -1,260 Descending Chicago Center
06:34PM 42.7178 -85.8794 257° West 427 491 23,200 -1,260 Descending Chicago Center
06:35PM 42.6917 -86.0208 256° West 390 449 22,000 -1,260 Descending Chicago Center
06:36PM 42.6658 -86.1622 256° West 384 442 20,600 -1,080 Descending Chicago Center
06:37PM 42.6400 -86.3008 256° West 379 436 19,800 -1,320 Descending Chicago Center
06:38PM 42.6094 -86.4642 256° West 374 430 17,900 -1,680 Descending Chicago Center
06:39PM 42.5825 -86.5994 255° West 372 428 16,300 -1,560 Descending Chicago Center
06:40PM 42.5597 -86.7336 257° West 366 421 14,700 -1,620 Descending Chicago Center
06:41PM 42.5244 -86.8608 249° West 362 417 13,000 -1,620 Descending Chicago Center
06:42PM 42.4903 -86.9831 249° West 351 404 11,400 -1,500 Descending Chicago Center
06:43PM 42.4567 -87.1036 249° West 345 397 10,000 -720 Descending Chicago Center
06:44PM 42.4164 -87.2508 250° West 347 399 10,000  Level Chicago Center
06:45PM 42.3836 -87.3703 250° West 342 394 10,000  Level Chicago Center
06:46PM 42.3533 -87.4797 250° West 342 394 10,000  Level Chicago Center
06:47PM 42.2808 -87.5944 230° Southwest 343 395 10,000 -480 Level Chicago Center
06:48PM 42.2144 -87.6656 218° Southwest 305 351 9,100 -1,260 Descending Chicago Center
06:49PM 42.1506 -87.7325 218° Southwest 293 337 7,400 -1,260 Descending Chicago Center
06:50PM 42.1000 -87.7833 217° Southwest 288 331 7,000 -240 Descending Chicago TRACON
06:51PM 42.0833 -87.9000 259° West 271 312 7,000  Level Chicago TRACON
06:52PM 42.0833 -87.9833 270° West 233 268 7,000 -300 Level Chicago TRACON
06:53PM 42.0833 -88.0667 270° West 231 266 6,400 -780 Descending Chicago TRACON
06:54PM 42.0667 -88.1500 255° West 228 262 5,500 -960 Descending Chicago TRACON
06:54PM 42.0681 -88.1797 274° West 229 264 5,100 -360 Descending Chicago Center
06:56PM 42.0622 -88.2667 265° West 233 268 5,000 -60 Descending Chicago Center
06:57PM 42.0564 -88.3450 264° West 223 257 5,000  Level Chicago Center
06:58PM 42.0275 -88.4050 237° Southwest 209 241 5,000  Level Chicago Center
06:59PM 41.9739 -88.4014 177° South 199 229 5,000  Level Chicago Center
07:00PM 41.9664 -88.3331 98° East 189 217 5,000  Level Chicago Center
07:01PM 41.9672 -88.2664 89° East 179 206 5,000 -180 Level Chicago Center
07:02PM 41.9672 -88.1986 90° East 182 209 4,700 -780 Descending Chicago Center
07:03PM 41.9683 -88.1211 89° East 177 204 3,500 -1,200 Descending Chicago Center
07:03PM 41.9667 -88.1000 96° East 175 201 3,100 -960 Descending Chicago TRACON
07:04PM 41.9667 -88.0333 90° East 166 191 2,200 -900 Descending Chicago TRACON
07:05PM 41.9667 -87.9833 90° East 135 155 1,400 -840 Descending Chicago TRACON